logo
App data

Totally Unbalanced

Totally Unbalanced is a 3D platform game where you have to complete puzzles and overcome obstacles. Totally Unbalanced also features (currently) two multiplayer modes : sumo arena with 4 players and racing mode with 16 players.
Store | Hub | SteamDB | Site
Developer: Isojumper Publisher: Axel Sonic
Genre: Action, Adventure, Casual, Indie, Racing
Languages: English
Tags: Racing (32), Adventure (22), Action (22), Indie (22), Casual (22), Puzzle (15), Multiplayer (14), Runner (13), Singleplayer (13), Arcade (13), Great Soundtrack (12), Fantasy (12), Funny (12), Platformer (12), Stylized (12), Character Customization (12), Puzzle-Platformer (12), Action-Adventure (11), Atmospheric (11), Free to Play (6)
Category: Single-player, Multi-player, PvP, Online PvP, Co-op, Cross-Platform Multiplayer, Steam Achievements, Full controller support, Steam Trading Cards, Steam Cloud, Steam Leaderboards, Steam Turn Notifications
Release date: Jul 29, 2016
Free
Old userscore: 81% Owners: 50,000 .. 100,000
Followers: 497
Peak concurrent players yesterday: 3
YouTube stats: 4 views and 0 comments for top 50 videos uploaded last week, 0 new videos uploaded yesterday.
Playtime total: 05:02 (average) 05:02 (median)

Steam Spy is still in beta, so expect major bugs.

Owners data:

Access restricted.

This feature is only available to users with special access rights. Sorry.

If you want to proceed, you need to register or log in first and then back Steam Spy on Patreon. Look for Indie or Pro pledge.

Don't forget to use the same email as on Steam Spy!

If you've recently backed Steam Spy on Patreon, please note, that it might take around 15 minutes for your access rights to sync. In most cases you'll need to re-login on Steam Spy too.

Audience in 2 weeks:

Access restricted.

This feature is only available to users with special access rights. Sorry.

If you want to proceed, you need to register or log in first and then back Steam Spy on Patreon. Look for Indie or Pro pledge.

Don't forget to use the same email as on Steam Spy!

If you've recently backed Steam Spy on Patreon, please note, that it might take around 15 minutes for your access rights to sync. In most cases you'll need to re-login on Steam Spy too.

Peak daily concurrent players:

CCU data courtesy of SteamDB. Used with permission.

Hourly concurrent players:

Followers over time

Access restricted.

This feature is only available to users with special access rights. Sorry.

If you want to proceed, you need to register or log in first and then back Steam Spy on Patreon. Look for Indie or Pro pledge.

Don't forget to use the same email as on Steam Spy!

If you've recently backed Steam Spy on Patreon, please note, that it might take around 15 minutes for your access rights to sync. In most cases you'll need to re-login on Steam Spy too.

Views for top 50 videos on YouTube for this game:

Games similar to this one:

# Game Release date
Price
Score rank
(Userscore / Metascore)
Owners
Players
Playtime (Median)
1 Rescue Team 5 Nov 18, 2015 $0.79N/A (N/A)0 .. 20,0000%00:00 (00:00)
2 Forgotten, Not Lost - A Kinetic Novel Apr 1, 2016 $1.99N/A (N/A)50,000 .. 100,0000%00:00 (00:00)
3 [the Sequence] Mar 30, 2016 $2.24N/A (N/A)20,000 .. 50,0000%00:00 (00:00)
4 Burst Mar 14, 2016 N/AN/A (N/A)20,000 .. 50,0000%00:00 (00:00)
5 Hustle Cat Mar 16, 2016 $1.99N/A (N/A)50,000 .. 100,0000%00:00 (00:00)
6 RePete Nov 1, 2015 $1.99N/A (N/A)0 .. 20,0000%00:00 (00:00)
7 Sophie's Curse Mar 16, 2016 $2.49N/A (N/A)50,000 .. 100,0000%00:00 (00:00)
8 Broken Dreams Feb 19, 2016 $0.99N/A (N/A)500,000 .. 1,000,0000%00:00 (00:00)
9 Goodnight Butcher Dec 18, 2015 $1.99N/A (N/A)0 .. 20,0000%00:00 (00:00)
10 One Last Chance Apr 7, 2016 $1.99N/A (N/A)20,000 .. 50,0000%00:00 (00:00)
11 BAD END Nov 25, 2015 $2.49N/A (N/A)20,000 .. 50,0000%00:00 (00:00)
12 The Last NightMary - A Lenda do Cabeça de Cuia Nov 2, 2015 $1.09N/A (N/A)50,000 .. 100,0000%00:00 (00:00)
13 Star Sky Oct 23, 2015 $0.79N/A (N/A)0 .. 20,0000%00:00 (00:00)
14 Lift It Jan 20, 2017 $0.54N/A (N/A)100,000 .. 200,0000%00:00 (00:00)
15 Without Within 2 Nov 9, 2015 $2.49N/A (N/A)0 .. 20,0000%00:00 (00:00)
16 Gridworld Dec 24, 2015 $0.99N/A (N/A)0 .. 20,0000%00:00 (00:00)
17 12 Labours of Hercules IV: Mother Nature (Platinum Edition) Dec 25, 2015 $1.49N/A (N/A)20,000 .. 50,0000%00:00 (00:00)
18 Collisions Jul 28, 2015 $4.99N/A (N/A)50,000 .. 100,0000%00:00 (00:00)
19 Football Blitz Jan 4, 2017 N/AN/A (N/A)0 .. 20,0000%00:00 (00:00)
20 Dungeon Painter Studio Feb 26, 2017 $14.99N/A (N/A)100,000 .. 200,00025%11:35 (03:51)
21 Ninja Stealth 2 Jan 30, 2017 $0.49N/A (N/A)200,000 .. 500,0000%00:00 (00:00)
22 iREC Jan 16, 2017 $0.49N/A (N/A)200,000 .. 500,0000%00:00 (00:00)
23 Neon Prism Nov 18, 2016 $1.09N/A (N/A)200,000 .. 500,0004.35%01:18 (00:26)
24 The Survey Oct 27, 2016 $0.99N/A (N/A)50,000 .. 100,0000%00:00 (00:00)
25 GO AWAY, THERE'S KUMIS OVER THERE! Oct 28, 2016 $0.99N/A (N/A)50,000 .. 100,0000%00:00 (00:00)
26 Kombine Oct 14, 2016 $0.51N/A (N/A)20,000 .. 50,0000%00:00 (00:00)
27 Turbo Pug 3D Sep 20, 2016 $0.99N/A (N/A)500,000 .. 1,000,0000%00:00 (00:00)
28 Robot vs Birds Zombies Jun 1, 2013 $0.99N/A (N/A)500,000 .. 1,000,0000%00:00 (00:00)
29 Clock Simulator Jul 20, 2016 N/AN/A (N/A)20,000 .. 50,0000%00:00 (00:00)
30 ConflictCraft Dec 8, 2016 $0.49N/A (N/A)100,000 .. 200,0006.25%03:02 (01:00)
31 12 Labours of Hercules V: Kids of Hellas (Platinum Edition) Jun 17, 2016 $1.49N/A (N/A)20,000 .. 50,0000%00:00 (00:00)
32 Frog Climbers Oct 6, 2016 $1.39N/A (N/A)20,000 .. 50,0000%00:00 (00:00)
33 Magma Tsunami Jun 1, 2016 $0.99N/A (N/A)200,000 .. 500,0000%00:00 (00:00)
34 King's Guard TD Jun 8, 2016 $2.39N/A (N/A)200,000 .. 500,0000%00:00 (00:00)
35 Hyposphere May 5, 2016 $0.59N/A (N/A)200,000 .. 500,0000%00:00 (00:00)
36 Reptilian Rebellion Aug 8, 2016 $2.99N/A (N/A)50,000 .. 100,0000%00:00 (00:00)
37 Cyto Jul 10, 2014 $3.99N/A (N/A)20,000 .. 50,0000%00:00 (00:00)
38 Stay Alight Mar 2, 2015 $3.99N/A (N/A)50,000 .. 100,0000%00:00 (00:00)
39 Pixel Puzzles 2: Birds Feb 20, 2015 $0.49N/A (N/A)200,000 .. 500,0000%00:00 (00:00)
40 12 Labours of Hercules Mar 23, 2015 $1.49N/A (N/A)100,000 .. 200,0000%00:00 (00:00)
41 Steam and Metal Feb 9, 2015 $0.49N/A (N/A)50,000 .. 100,0000%00:00 (00:00)
42 The Jackbox Party Pack Nov 26, 2014 $12.49N/A (N/A)200,000 .. 500,0000%00:00 (00:00)
43 Sinister City Oct 20, 2014 $0.69N/A (N/A)100,000 .. 200,0000%00:00 (00:00)
44 A Good Snowman Is Hard To Build Feb 25, 2015 $2.49N/A (N/A)50,000 .. 100,0000%00:00 (00:00)
45 Bloop Reloaded Feb 6, 2015 N/AN/A (N/A)100,000 .. 200,0000%00:00 (00:00)
46 Streets of Chaos Jan 23, 2015 N/AN/A (N/A)100,000 .. 200,0000%00:00 (00:00)
47 Rage Runner May 16, 2014 $0.99N/A (N/A)0 .. 20,0000%00:00 (00:00)
48 On Rusty Trails Jun 13, 2016 $1.94N/A (N/A/77%)20,000 .. 50,0000%00:00 (00:00)
49 Tribloos 2 Jan 12, 2013 $4.99N/A (N/A)100,000 .. 200,0000%00:00 (00:00)
50 Farm for your Life Jun 5, 2013 $9.99N/A (N/A)100,000 .. 200,0000%00:00 (00:00)
51 Girls Like Robots Feb 14, 2014 $1.74N/A (N/A)100,000 .. 200,0000%00:00 (00:00)
52 Particulars Nov 19, 2014 FreeN/A (N/A/74%)0 .. 20,0000%00:00 (00:00)
53 Oozi: Earth Adventure Dec 5, 2013 $0.99N/A (N/A/66%)20,000 .. 50,0000%00:00 (00:00)
54 Luxor Evolved Mar 1, 2012 $3.39N/A (N/A)50,000 .. 100,0000%00:00 (00:00)
55 Way of Gold and Steel Aug 17, 2015 $1.97N/A (N/A)20,000 .. 50,0000%00:00 (00:00)
56 In Between Aug 21, 2015 $1.19N/A (N/A/68%)50,000 .. 100,0000%00:00 (00:00)
57 Alpha Runner Sep 2, 2015 $0.99N/A (N/A)100,000 .. 200,0000%00:00 (00:00)
58 Asphyxia Aug 4, 2015 $1.79N/A (N/A)20,000 .. 50,0000%00:00 (00:00)
59 Wanda - A Beautiful Apocalypse Jun 3, 2016 $1.99N/A (N/A)100,000 .. 200,0000%00:00 (00:00)
60 Job the Leprechaun Jul 31, 2015 $2.99N/A (N/A)50,000 .. 100,0000%00:00 (00:00)
61 Star Chronicles: Delta Quadrant Jul 7, 2015 $0.99N/A (N/A)200,000 .. 500,0000%00:00 (00:00)
62 Koala Kids Jun 22, 2015 $0.49N/A (N/A)100,000 .. 200,0000%00:00 (00:00)
63 Fate Tectonics Sep 9, 2015 $4.99N/A (N/A)20,000 .. 50,0000%00:00 (00:00)
64 Governor of Poker 2 - Premium Edition Oct 11, 2010 $7.99N/A (N/A)20,000 .. 50,0000%00:00 (00:00)
65 Egg Returns Home May 5, 2015 N/AN/A (N/A)100,000 .. 200,0000%00:00 (00:00)
66 The Reject Demon: Toko Chapter 0 — Prelude May 8, 2015 $4.99N/A (N/A)20,000 .. 50,0000%00:00 (00:00)
67 Earthtongue Apr 27, 2015 $4.99N/A (N/A)100,000 .. 200,0000%00:00 (00:00)
68 Alter World May 29, 2015 $0.99N/A (N/A)200,000 .. 500,0000%00:00 (00:00)
69 Drizzlepath Mar 12, 2015 $1.99N/A (N/A)20,000 .. 50,0000%00:00 (00:00)
70 Pester Jan 25, 2013 $0.54N/A (N/A)100,000 .. 200,0000%00:00 (00:00)
71 Chip's Challenge 2 May 28, 2015 $4.99N/A (N/A)20,000 .. 50,0000%00:00 (00:00)
72 Racecraft Mar 4, 2016 FreeN/A (N/A)20,000 .. 50,0000%00:00 (00:00)

Tags over time:

Access restricted.

This feature is only available to users with special access rights. Sorry.

If you want to proceed, you need to register or log in first and then back Steam Spy on Patreon. Look for Indie or Pro pledge.

Don't forget to use the same email as on Steam Spy!

If you've recently backed Steam Spy on Patreon, please note, that it might take around 15 minutes for your access rights to sync. In most cases you'll need to re-login on Steam Spy too.

Owners of this game also own:

Access restricted.

This feature is only available to users with special access rights. Sorry.

If you want to proceed, you need to register or log in first and then back Steam Spy on Patreon. Look for Indie or Pro pledge.

Don't forget to use the same email as on Steam Spy!

If you've recently backed Steam Spy on Patreon, please note, that it might take around 15 minutes for your access rights to sync. In most cases you'll need to re-login on Steam Spy too.

Playtime distribution:

Access restricted.

This feature is only available to users with special access rights. Sorry.

If you want to proceed, you need to register or log in first and then back Steam Spy on Patreon. Look for Indie or Pro pledge.

Don't forget to use the same email as on Steam Spy!

If you've recently backed Steam Spy on Patreon, please note, that it might take around 15 minutes for your access rights to sync. In most cases you'll need to re-login on Steam Spy too.

Playtime (2 weeks):

Access restricted.

This feature is only available to users with special access rights. Sorry.

If you want to proceed, you need to register or log in first and then back Steam Spy on Patreon. Look for Indie or Pro pledge.

Don't forget to use the same email as on Steam Spy!

If you've recently backed Steam Spy on Patreon, please note, that it might take around 15 minutes for your access rights to sync. In most cases you'll need to re-login on Steam Spy too.

User reviews:

Login required.

Please register or log in to see this information.